Terminal Aerodrome Forecast
Issued by NWS Austin/San Antonio, TX

Home | Current Version | Previous Version | Text Only | Print | Product List | Glossary On
Versions: 1 2 3 4 5 6 7 8 9 10 11 12 13 14 15 16 17 18 19 20 21 22 23 24 25 26 27
000
FTUS44 KEWX 191700 RRA
TAFAUS
TAF
KAUS 191741Z 1918/2024 13010KT P6SM BKN045 BKN250
     FM192300 14009KT P6SM FEW060 SCT250
     FM200830 16006KT 6SM BR BKN012
     FM201000 15005KT 4SM BR OVC008
     FM201500 16010KT 5SM BR OVC015
     FM201700 16012KT P6SM BKN025
     FM201900 16012G18KT P6SM SCT030 BKN050 BKN250=

USA.gov is the U.S. government's official web portal to all federal, state and local government web resources and services.